Latest Weather Observations for Alice Springs Airport

IDD60801

Issued at 5:21 am CST Friday 22 October 2021 (issued every 10 minutes, with the page automatically refreshed every 10 minutes)

About weather observations | Map of weather stations | Latest weather observations for NT | Other Formats
Station Details ID: 015590 Name: ALICE SPRINGS AIRPORT Lat: -23.80 Lon: 133.89 Height: 546.0 m
Data from the previous 72 hours. | See also: Recent months at Alice Springs Airport
Date/Time
CST
Temp
°C
App
Temp
°C
Dew
Point
°C
Rel
Hum
%
Delta-T
°C
Wind Press
QNH
hPa
Press
MSL
hPa
Rain since
9am
mm
Dir  Spd
km/h
Gust
km/h
Spd
kts
Gust
kts
22/05:00am 17.7 16.1 2.5 36 7.1 CALM 0 0 0 0 1012.7 1009.9 0.0
22/04:30am 18.0 16.4 2.7 36 7.2 CALM 0 0 0 0 1012.4 1009.6 0.0
22/04:00am 17.7 14.7 2.1 35 7.3 WNW 7 9 4 5 1012.2 1009.4 0.0
22/03:30am 18.3 15.9 2.2 34 7.6 WNW 4 7 2 4 1012.2 1009.4 0.0
22/03:00am 19.0 17.4 2.4 33 7.9 CALM 0 0 0 0 1012.1 1009.2 0.0
22/02:30am 19.4 17.8 2.7 33 8.0 CALM 0 0 0 0 1012.3 1009.5 0.0
22/02:00am 20.1 18.6 2.9 32 8.3 CALM 0 0 0 0 1012.4 1009.6 0.0
22/01:30am 20.3 18.7 2.6 31 8.5 CALM 0 0 0 0 1012.6 1009.8 0.0
22/01:00am 21.2 19.7 3.0 30 8.9 CALM 0 0 0 0 1012.7 1009.9 0.0
22/12:30am 21.9 18.9 2.1 27 9.5 E 7 7 4 4 1012.7 1009.9 0.0
22/12:00am 24.2 21.0 2.9 25 10.6 E 9 11 5 6 1012.7 1009.9 0.0
 
Date/Time
CST
Temp
°C
App
Temp
°C
Dew
Point
°C
Rel
Hum
%
Delta-T
°C
Wind Press
QNH
hPa
Press
MSL
hPa
Rain since
9am
mm
Dir  Spd
km/h
Gust
km/h
Spd
kts
Gust
kts
21/11:30pm 24.2 20.6 2.9 25 10.6 SE 11 13 6 7 1012.8 1010.0 0.0
21/11:00pm 24.7 21.5 2.8 24 10.9 SE 9 11 5 6 1012.9 1010.1 0.0
21/10:30pm 26.1 22.2 3.4 23 11.5 SE 13 15 7 8 1012.8 1010.0 0.0
21/10:00pm 27.3 23.3 3.1 21 12.3 ESE 13 17 7 9 1012.6 1009.8 0.0
21/09:30pm 27.5 23.9 3.2 21 12.4 ESE 11 13 6 7 1012.4 1009.6 0.0
21/09:00pm 28.3 24.4 3.2 20 12.9 ESE 13 15 7 8 1012.1 1009.2 0.0
21/08:30pm 28.2 24.1 2.4 19 13.0 ESE 13 15 7 8 1011.8 1009.0 0.0
21/08:00pm 29.4 25.4 2.6 18 13.7 SE 13 17 7 9 1011.4 1008.6 0.0
21/07:30pm 30.7 26.6 2.0 16 14.6 SE 13 19 7 10 1011.0 1008.2 0.0
21/07:00pm 31.6 26.3 1.8 15 15.2 SE 19 26 10 14 1010.5 1007.7 0.0
21/06:30pm 32.7 27.8 1.7 14 15.9 SE 17 22 9 12 1010.2 1007.3 0.0
21/06:00pm 33.6 29.0 1.4 13 16.6 SE 15 20 8 11 1009.8 1007.0 0.0
21/05:30pm 34.2 29.7 1.9 13 16.8 E 15 20 8 11 1009.6 1006.8 0.0
21/05:00pm 34.2 30.0 1.9 13 16.8 SSE 13 24 7 13 1009.6 1006.8 0.0
21/04:30pm 34.3 30.2 2.0 13 16.8 S 13 24 7 13 1009.6 1006.8 0.0
21/04:00pm 34.2 30.4 1.9 13 16.8 SSE 11 19 6 10 1009.8 1007.0 0.0
21/03:30pm 34.1 30.5 2.8 14 16.5 WNW 11 20 6 11 1009.9 1007.1 0.0
21/03:00pm 34.2 30.2 2.9 14 16.5 SSE 13 22 7 12 1010.1 1007.2 0.0
21/02:30pm 32.8 28.4 2.8 15 15.7 S 15 20 8 11 1010.4 1007.5 0.0
21/02:00pm 32.7 30.2 4.5 17 15.1 NNW 7 17 4 9 1010.9 1008.1 0.0
21/01:30pm 33.1 28.7 4.8 17 15.3 ESE 17 26 9 14 1011.1 1008.3 0.0
21/01:00pm 32.5 28.5 5.1 18 14.8 SE 15 30 8 16 1011.8 1009.0 0.0
21/12:30pm 32.4 27.6 5.8 19 14.6 ESE 20 35 11 19 1012.4 1009.6 0.0
21/12:00pm 30.7 26.0 5.2 20 13.7 ESE 19 28 10 15 1013.0 1010.2 0.0
21/11:30am 29.9 25.0 5.2 21 13.2 SE 20 33 11 18 1013.3 1010.5 0.0
21/11:00am 29.0 24.0 4.5 21 12.9 ESE 20 32 11 17 1013.7 1011.0 0.0
21/10:30am 28.5 24.6 5.4 23 12.3 ESE 15 22 8 12 1014.1 1011.3 0.0
21/10:00am 27.8 24.0 6.0 25 11.7 ESE 15 22 8 12 1014.4 1011.6 0.0
21/09:30am 27.0 22.9 6.4 27 11.1 SE 17 30 9 16 1014.6 1011.8 0.0
21/09:00am 26.0 21.5 6.1 28 10.6 ESE 19 28 10 15 1014.7 1011.9 0.0
21/08:30am 25.1 20.8 6.8 31 9.8 SE 19 30 10 16 1014.5 1011.7 0.0
21/08:00am 24.2 20.6 9.8 40 8.1 SE 19 26 10 14 1014.3 1011.5 0.0
21/07:30am 23.6 20.0 9.9 42 7.7 SE 19 28 10 15 1014.0 1011.2 0.0
21/07:00am 22.5 20.5 10.0 45 7.0 SSE 11 15 6 8 1013.7 1011.0 0.0
21/06:30am 20.3 18.1 9.5 50 5.9 S 11 13 6 7 1013.2 1010.4 0.0
21/06:00am 20.0 18.3 9.9 52 5.6 SE 9 11 5 6 1012.6 1009.8 0.0
21/05:30am 20.6 18.4 9.2 48 6.2 SSE 11 13 6 7 1012.5 1009.7 0.0
21/05:00am 20.9 19.2 9.8 49 6.1 S 9 13 5 7 1012.1 1009.2 0.0
21/04:30am 21.9 20.4 10.4 48 6.5 S 9 13 5 7 1011.9 1009.1 0.0
21/04:00am 23.2 20.4 9.9 43 7.4 SSE 15 19 8 10 1011.7 1008.9 0.0
21/03:30am 23.0 20.9 9.8 43 7.4 SSE 11 13 6 7 1011.3 1008.5 0.0
21/03:00am 24.3 21.9 10.2 41 8.0 SE 13 17 7 9 1011.3 1008.5 0.0
21/02:30am 25.5 23.5 10.1 38 8.8 SE 11 17 6 9 1011.5 1008.7 0.0
21/02:00am 26.3 23.9 10.0 36 9.3 SE 13 19 7 10 1011.6 1008.8 0.0
21/01:30am 26.6 23.4 9.9 35 9.5 SE 17 26 9 14 1011.9 1009.1 0.0
21/01:00am 26.8 23.3 10.1 35 9.5 SE 19 28 10 15 1012.3 1009.5 0.0
21/12:30am 27.6 24.0 9.9 33 10.1 SSE 19 26 10 14 1012.7 1009.9 0.0
21/12:00am 28.8 25.4 9.0 29 11.2 SE 17 24 9 13 1012.7 1009.9 0.0
 
Date/Time
CST
Temp
°C
App
Temp
°C
Dew
Point
°C
Rel
Hum
%
Delta-T
°C
Wind Press
QNH
hPa
Press
MSL
hPa
Rain since
9am
mm
Dir  Spd
km/h
Gust
km/h
Spd
kts
Gust
kts
20/11:30pm 29.9 26.8 8.9 27 11.9 SE 15 20 8 11 1012.8 1010.0 0.0
20/11:00pm 30.8 27.6 8.5 25 12.6 SE 15 19 8 10 1012.6 1009.8 0.0
20/10:30pm 31.3 27.7 8.3 24 13.0 SE 17 26 9 14 1012.2 1009.4 0.0
20/10:00pm 32.1 29.6 8.4 23 13.5 SE 11 17 6 9 1012.1 1009.2 0.0
20/09:30pm 32.8 28.8 8.3 22 14.0 SE 19 33 10 18 1011.3 1008.5 0.0
20/09:00pm 33.5 29.9 8.2 21 14.5 SSE 17 20 9 11 1010.7 1007.9 0.0
20/08:30pm 34.0 29.3 7.9 20 14.9 S 22 32 12 17 1010.5 1007.7 0.0
20/08:11pm 34.7 28.8 7.7 19 15.4 SSW 28 50 15 27 1010.2 1007.3 0.0
20/08:00pm 34.6 30.4 8.4 20 15.1 SW 20 30 11 16 1010.2 1007.3 0.0
20/07:30pm 35.1 29.3 8.0 19 15.6 SSW 28 39 15 21 1009.2 1006.4 0.0
20/07:13pm 36.1 31.7 7.2 17 16.5 WSW 20 50 11 27 1008.9 1006.1 0.0
20/07:11pm 35.9 31.6 5.2 15 16.9 W 17 50 9 27 1008.8 1005.9 0.0
20/07:00pm 35.5 32.6 4.9 15 16.8 W 9 11 5 6 1008.3 1005.4 0.0
20/06:30pm 36.7 33.5 4.9 14 17.6 W 11 15 6 8 1007.9 1005.1 0.0
20/06:00pm 38.2 34.2 5.0 13 18.5 W 15 20 8 11 1007.8 1005.0 0.0
20/05:30pm 38.7 34.4 5.4 13 18.7 WNW 17 32 9 17 1007.6 1004.8 0.0
20/05:00pm 38.9 34.7 5.5 13 18.8 WNW 17 32 9 17 1007.6 1004.8 0.0
20/04:30pm 38.9 34.3 5.5 13 18.8 SW 19 32 10 17 1007.6 1004.8 0.0
20/04:00pm 38.5 33.6 5.2 13 18.6 W 20 28 11 15 1007.6 1004.8 0.0
20/03:30pm 40.2 35.4 5.4 12 19.7 WNW 20 35 11 19 1007.7 1004.9 0.0
20/03:00pm 39.2 34.4 5.7 13 19.0 WNW 20 30 11 16 1008.2 1005.3 0.0
20/02:30pm 39.3 34.2 5.8 13 19.0 NW 22 35 12 19 1008.5 1005.6 0.0
20/02:00pm 38.9 35.6 6.6 14 18.5 N 13 28 7 15 1008.9 1006.1 0.0
20/01:30pm 39.5 34.3 7.1 14 18.7 NW 24 39 13 21 1009.5 1006.7 0.0
20/01:29pm 39.5 34.6 7.1 14 18.7 NW 22 39 12 21 1009.5 1006.7 0.0
20/01:00pm 38.9 34.3 6.6 14 18.5 WNW 20 33 11 18 1010.1 1007.2 0.0
20/12:30pm 38.3 33.8 6.1 14 18.2 WNW 19 33 10 18 1010.7 1007.9 0.0
20/12:00pm 38.4 34.0 7.2 15 18.0 WNW 20 32 11 17 1011.2 1008.4 0.0
20/11:30am 37.6 32.9 9.2 18 16.8 NNW 24 33 13 18 1011.6 1008.8 0.0
20/11:00am 37.1 31.3 9.6 19 16.3 NNW 30 39 16 21 1012.1 1009.2 0.0
20/10:30am 37.4 31.7 9.9 19 16.4 N 30 37 16 20 1012.4 1009.6 0.0
20/10:00am 35.7 30.1 10.0 21 15.2 NNW 30 43 16 23 1012.7 1009.9 0.0
20/09:30am 35.8 30.9 10.1 21 15.3 NNW 26 39 14 21 1013.1 1010.3 0.0
20/09:00am 34.0 30.4 10.6 24 13.9 N 20 30 11 16 1013.4 1010.6 0.0
20/08:30am 32.1 28.6 10.2 26 12.8 N 19 28 10 15 1013.4 1010.6 0.0
20/08:00am 30.8 27.1 10.2 28 12.0 N 20 28 11 15 1013.4 1010.6 0.0
20/07:30am 29.9 29.9 9.9 29 11.6 CALM 0 0 0 0 1013.1 1010.3 0.0
20/07:00am 29.2 28.5 9.9 30 11.1 SE 4 11 2 6 1013.0 1010.2 0.0
20/06:30am 28.3 26.5 9.6 31 10.7 SE 9 11 5 6 1012.7 1009.9 0.0
20/06:00am 26.5 24.7 9.4 34 9.6 ENE 9 15 5 8 1012.7 1009.9 0.0
20/05:30am 27.5 24.3 9.8 33 10.1 NE 17 20 9 11 1012.5 1009.7 0.0
20/05:00am 27.8 25.7 9.6 32 10.4 NE 11 15 6 8 1012.4 1009.6 0.0
20/04:30am 28.3 26.5 9.6 31 10.7 NE 9 11 5 6 1012.6 1009.8 0.0
20/04:00am 28.5 26.8 9.7 31 10.8 NE 9 11 5 6 1012.6 1009.8 0.0
20/03:30am 26.6 24.8 9.5 34 9.7 ENE 9 11 5 6 1012.7 1009.9 0.0
20/03:00am 27.0 25.3 9.8 34 9.8 NE 9 13 5 7 1012.9 1010.1 0.0
20/02:30am 27.6 25.8 9.4 32 10.3 NE 9 13 5 7 1013.1 1010.3 0.0
20/02:00am 28.5 26.4 9.7 31 10.8 NE 11 13 6 7 1013.2 1010.4 0.0
20/01:30am 28.7 26.5 9.4 30 11.0 ENE 11 15 6 8 1013.5 1010.7 0.0
20/01:00am 27.0 24.5 8.0 30 10.5 ENE 11 13 6 7 1013.7 1011.0 0.0
20/12:30am 27.5 24.8 7.4 28 11.0 E 11 13 6 7 1014.0 1011.2 0.0
20/12:00am 28.6 24.5 6.1 24 12.1 E 17 22 9 12 1014.2 1011.4 0.0
 
Date/Time
CST
Temp
°C
App
Temp
°C
Dew
Point
°C
Rel
Hum
%
Delta-T
°C
Wind Press
QNH
hPa
Press
MSL
hPa
Rain since
9am
mm
Dir  Spd
km/h
Gust
km/h
Spd
kts
Gust
kts
19/11:30pm 29.5 25.5 4.9 21 13.1 E 15 19 8 10 1014.3 1011.5 0.0
19/11:00pm 30.1 25.3 4.7 20 13.5 E 19 22 10 12 1014.4 1011.6 0.0
19/10:30pm 30.2 26.4 4.0 19 13.8 ENE 13 17 7 9 1014.3 1011.5 0.0
19/10:00pm 30.8 26.6 3.8 18 14.2 E 15 19 8 10 1014.3 1011.5 0.0
19/09:30pm 30.6 27.7 2.8 17 14.3 ESE 7 9 4 5 1014.1 1011.3 0.0
19/09:00pm 32.7 28.3 2.7 15 15.6 ESE 15 19 8 10 1013.8 1011.1 0.0
19/08:30pm 34.0 28.7 2.8 14 16.4 ESE 20 30 11 16 1013.4 1010.6 0.0
19/08:00pm 34.7 29.3 2.3 13 17.0 ESE 20 30 11 16 1012.9 1010.1 0.0
19/07:30pm 35.5 30.4 2.9 13 17.3 ESE 19 28 10 15 1012.4 1009.6 0.0
19/07:00pm 35.7 31.9 1.9 12 17.7 SSE 11 13 6 7 1011.6 1008.8 0.0
19/06:30pm 36.9 33.3 2.8 12 18.3 S 11 15 6 8 1011.3 1008.5 0.0
19/06:00pm 38.1 34.4 2.5 11 19.1 SSE 11 15 6 8 1010.9 1008.1 0.0
19/05:30pm 38.1 33.7 2.5 11 19.1 WSW 15 26 8 14 1010.7 1007.9 0.0
19/05:00pm 38.3 33.5 2.7 11 19.1 SW 17 26 9 14 1010.5 1007.7 0.0
19/04:30pm 39.2 34.2 3.4 11 19.6 SW 19 32 10 17 1010.4 1007.5 0.0
19/04:00pm 38.3 33.5 2.7 11 19.1 WNW 17 28 9 15 1010.5 1007.7 0.0
19/03:30pm 38.6 33.9 2.9 11 19.3 W 17 28 9 15 1010.7 1007.9 0.0
19/03:00pm 40.8 37.6 3.2 10 20.7 W 9 19 5 10 1010.9 1008.1 0.0
19/02:30pm 39.6 34.4 3.7 11 19.7 W 20 30 11 16 1011.3 1008.5 0.0
19/02:00pm 39.1 35.0 4.5 12 19.2 WNW 15 22 8 12 1011.5 1008.7 0.0
19/01:30pm 38.8 33.4 4.3 12 19.1 WNW 22 37 12 20 1012.3 1009.5 0.0
19/01:02pm 38.7 33.8 4.2 12 19.0 NW 19 30 10 16 1012.6 1009.8 0.0
19/01:00pm 38.5 33.6 4.1 12 18.9 NW 19 30 10 16 1012.7 1009.9 0.0
19/12:46pm 38.7 34.2 4.2 12 19.0 WNW 17 30 9 16 1013.0 1010.2 0.0
19/12:30pm 38.3 33.4 3.9 12 18.8 WNW 19 30 10 16 1013.2 1010.4 0.0
19/12:00pm 38.3 34.1 3.9 12 18.8 NNW 15 30 8 16 1013.6 1010.8 0.0
19/11:30am 37.9 32.6 6.8 15 17.8 NNW 24 33 13 18 1014.0 1011.2 0.0
19/11:00am 36.5 31.0 7.5 17 16.6 N 26 35 14 19 1014.2 1011.4 0.0
19/10:30am 36.1 30.5 8.8 19 15.9 NNW 28 39 15 21 1014.3 1011.5 0.0
19/10:00am 35.1 29.3 9.5 21 15.0 NNW 30 43 16 23 1014.6 1011.8 0.0
19/09:30am 33.8 29.4 9.1 22 14.3 N 22 33 12 18 1014.9 1012.1 0.0
19/09:00am 32.9 29.6 9.7 24 13.5 NNW 17 24 9 13 1015.0 1012.2 0.0
19/08:30am 32.0 28.2 8.9 24 13.3 N 19 26 10 14 1015.0 1012.2 0.0
19/08:00am 31.7 27.9 7.4 22 13.6 NNE 17 24 9 13 1014.8 1012.0 0.0
19/07:30am 30.3 28.9 3.4 18 14.0 CALM 0 0 0 0 1014.7 1011.9 0.0
19/07:00am 25.7 22.9 3.0 23 11.4 WNW 7 13 4 7 1014.5 1011.7 0.0
19/06:30am 21.6 18.4 2.8 29 9.1 WNW 9 13 5 7 1014.2 1011.4 0.0
19/06:00am 20.4 17.5 2.7 31 8.5 NNW 7 15 4 8 1014.1 1011.3 0.0
19/05:30am 19.9 18.3 2.3 31 8.4 CALM 0 0 0 0 1013.5 1010.7 0.0

Other formats

Comma delimited format used in spreadsheet applications
http://www.bom.gov.au/fwo/IDD60801/IDD60801.94326.axf

JavaScript Object Notation format (JSON) in row-major order
http://www.bom.gov.au/fwo/IDD60801/IDD60801.94326.json

Data quality

Most of these data are generated automatically and are frequently updated. Quality checks on data are not normally performed. It is possible for incorrect values to appear. Refer to information at About Latest Weather Observations and please check the disclaimer before using these data.